Time;durP1;ratioP1;P1;durP2;ratioP2;P2;SDS_P1;SDS_P2;PMS_P1;PMS_P2;Temp;Humidity;BMP_temperature;BMP_pressure;BME280_temperature;BME280_humidity;BME280_pressure;Samples;Min_cycle;Max_cycle;Signal;HPM_P1;HPM_P2
2022/08/17 00:00:24;;;;;;;13.32;2.03;;;;;;;;;;1039691;28;20207;-75
2022/08/17 00:00:56;;;;;;;9.52;1.45;;;;;;;;;;1039918;28;20034;-75
2022/08/17 00:01:27;;;;;;;4.28;1.73;;;;;;;;;;1036175;28;20022;-75
2022/08/17 00:01:59;;;;;;;14.15;2.03;;;;;;;;;;1039759;28;20043;-74
2022/08/17 00:02:30;;;;;;;7.43;1.63;;;;;;;;;;1039843;28;20033;-74
2022/08/17 00:03:00;;;;;;;6.78;1.65;;;;;;;;;;1039794;28;20032;-74
2022/08/17 00:03:33;;;;;;;5.57;1.13;;;;;;;;;;1039707;28;20033;-74
2022/08/17 00:04:03;;;;;;;10.77;2.35;;;;;;;;;;1039796;28;20025;-75
2022/08/17 00:04:34;;;;;;;6.82;2.05;;;;;;;;;;1039868;28;20025;-75
2022/08/17 00:05:04;;;;;;;4.63;1.65;;;;;;;;;;1036842;28;20080;-74
2022/08/17 00:05:38;;;;;;;3.95;0.95;;;;;;;;;;1036072;28;20036;-74
2022/08/17 00:06:11;;;;;;;5.60;1.65;;;;;;;;;;1035582;28;20026;-74
2022/08/17 00:06:41;;;;;;;7.45;1.73;;;;;;;;;;1035832;28;20029;-74
2022/08/17 00:07:12;;;;;;;7.20;1.33;;;;;;;;;;1035659;28;20505;-75
2022/08/17 00:07:43;;;;;;;4.03;1.38;;;;;;;;;;1035895;28;20045;-75
2022/08/17 00:08:14;;;;;;;3.85;1.30;;;;;;;;;;1035906;28;20515;-75
2022/08/17 00:08:45;;;;;;;3.88;1.73;;;;;;;;;;1035671;28;20060;-74
2022/08/17 00:09:16;;;;;;;6.15;1.73;;;;;;;;;;1031478;28;20041;-74
2022/08/17 00:09:47;;;;;;;7.40;1.98;;;;;;;;;;1031827;28;20515;-74
2022/08/17 00:10:17;;;;;;;10.27;2.33;;;;;;;;;;1031733;28;20126;-74
2022/08/17 00:10:48;;;;;;;7.15;2.05;;;;;;;;;;1035801;28;20033;-74
2022/08/17 00:11:29;;;;;;;7.88;2.15;;;;;;;;;;1035458;28;20089;-74
2022/08/17 00:12:01;;;;;;;2.70;1.33;;;;;;;;;;1035642;28;20112;-74
2022/08/17 00:12:38;;;;;;;8.82;2.28;;;;;;;;;;1035730;28;20036;-75
2022/08/17 00:13:10;;;;;;;6.15;1.27;;;;;;;;;;1035852;28;20521;-74
2022/08/17 00:13:43;;;;;;;6.18;1.98;;;;;;;;;;1036098;28;20109;-75
2022/08/17 00:14:16;;;;;;;14.95;1.27;;;;;;;;;;1035951;28;20018;-75
2022/08/17 00:14:47;;;;;;;6.07;1.90;;;;;;;;;;1035716;28;20381;-74
2022/08/17 00:15:18;;;;;;;5.90;2.17;;;;;;;;;;1031453;28;20030;-74
2022/08/17 00:15:49;;;;;;;8.90;1.50;;;;;;;;;;1031842;28;20018;-74
2022/08/17 00:16:22;;;;;;;8.00;1.58;;;;;;;;;;1027573;28;20023;-74
2022/08/17 00:16:52;;;;;;;6.85;1.80;;;;;;;;;;1032348;28;20034;-74
2022/08/17 00:17:23;;;;;;;4.45;1.92;;;;;;;;;;1035542;28;20136;-75
2022/08/17 00:17:53;;;;;;;6.18;2.75;;;;;;;;;;1035857;28;20034;-74
2022/08/17 00:18:26;;;;;;;6.15;1.58;;;;;;;;;;1035953;28;20037;-74
2022/08/17 00:19:01;;;;;;;3.30;1.58;;;;;;;;;;1036024;28;20034;-74
2022/08/17 00:19:31;;;;;;;3.88;1.73;;;;;;;;;;1035626;28;20022;-74
2022/08/17 00:20:03;;;;;;;6.60;2.00;;;;;;;;;;1031533;28;20030;-74
2022/08/17 00:20:33;;;;;;;3.70;1.38;;;;;;;;;;1031701;28;20390;-74
2022/08/17 00:21:05;;;;;;;9.75;2.08;;;;;;;;;;1031687;28;20018;-74
2022/08/17 00:21:37;;;;;;;8.95;2.03;;;;;;;;;;1035833;28;20034;-75
2022/08/17 00:22:08;;;;;;;11.38;2.50;;;;;;;;;;1035913;28;20535;-74
2022/08/17 00:22:38;;;;;;;6.00;2.72;;;;;;;;;;1036310;28;20125;-75
2022/08/17 00:23:11;;;;;;;8.43;2.17;;;;;;;;;;1035978;28;20038;-74
2022/08/17 00:23:42;;;;;;;12.88;1.73;;;;;;;;;;1036050;28;20025;-75
2022/08/17 00:24:13;;;;;;;2.97;1.52;;;;;;;;;;1035913;28;20079;-74
2022/08/17 00:24:43;;;;;;;8.07;2.45;;;;;;;;;;1036095;28;20113;-74
2022/08/17 00:25:16;;;;;;;6.10;1.67;;;;;;;;;;1035936;28;20122;-74
2022/08/17 00:25:47;;;;;;;9.05;1.52;;;;;;;;;;1036154;28;20456;-75
2022/08/17 00:26:18;;;;;;;11.60;1.98;;;;;;;;;;1035884;28;20061;-75
2022/08/17 00:26:49;;;;;;;6.43;1.63;;;;;;;;;;1036056;28;20033;-75
2022/08/17 00:27:20;;;;;;;7.65;2.10;;;;;;;;;;1035869;28;20076;-75
2022/08/17 00:27:50;;;;;;;7.32;1.23;;;;;;;;;;1035748;28;20116;-75
2022/08/17 00:28:21;;;;;;;11.98;2.20;;;;;;;;;;1035564;28;20125;-75
2022/08/17 00:28:52;;;;;;;5.68;1.80;;;;;;;;;;1035857;28;20056;-75
2022/08/17 00:29:23;;;;;;;5.93;2.40;;;;;;;;;;1035548;28;20165;-75
2022/08/17 00:29:53;;;;;;;8.18;2.10;;;;;;;;;;1036097;28;20160;-74
2022/08/17 00:30:24;;;;;;;11.57;2.33;;;;;;;;;;1035822;28;20425;-74
2022/08/17 00:30:54;;;;;;;6.35;2.08;;;;;;;;;;1036027;28;20068;-74
2022/08/17 00:31:25;;;;;;;6.22;1.90;;;;;;;;;;1035538;28;20029;-75
2022/08/17 00:31:56;;;;;;;3.90;1.58;;;;;;;;;;1035716;28;20069;-75
2022/08/17 00:32:26;;;;;;;8.20;3.00;;;;;;;;;;1035688;28;20390;-74
2022/08/17 00:32:57;;;;;;;4.32;1.73;;;;;;;;;;1035669;28;20120;-75
2022/08/17 00:33:29;;;;;;;7.55;2.03;;;;;;;;;;1036007;28;20022;-74
2022/08/17 00:34:00;;;;;;;19.55;2.28;;;;;;;;;;1035924;28;20120;-75
2022/08/17 00:34:31;;;;;;;10.18;2.13;;;;;;;;;;1036017;28;20029;-74
2022/08/17 00:35:05;;;;;;;3.67;1.60;;;;;;;;;;1035972;28;20125;-74
2022/08/17 00:35:37;;;;;;;3.38;1.58;;;;;;;;;;1035916;28;20393;-74
2022/08/17 00:36:07;;;;;;;3.60;1.38;;;;;;;;;;1035798;28;20017;-74
2022/08/17 00:36:38;;;;;;;11.07;1.73;;;;;;;;;;1036055;28;20034;-75
2022/08/17 00:37:08;;;;;;;5.35;1.55;;;;;;;;;;1035854;28;20124;-75
2022/08/17 00:37:39;;;;;;;8.50;2.38;;;;;;;;;;1036128;28;20115;-75
2022/08/17 00:38:11;;;;;;;4.35;1.50;;;;;;;;;;1035890;28;20022;-74
2022/08/17 00:38:42;;;;;;;2.95;1.58;;;;;;;;;;1036131;28;20036;-74
2022/08/17 00:39:12;;;;;;;3.83;1.23;;;;;;;;;;1036400;28;20040;-74
2022/08/17 00:39:43;;;;;;;6.10;1.30;;;;;;;;;;1036613;28;20112;-74
2022/08/17 00:40:14;;;;;;;5.00;1.40;;;;;;;;;;1036314;28;20037;-74
2022/08/17 00:40:47;;;;;;;6.00;2.03;;;;;;;;;;1036901;28;20087;-74
2022/08/17 00:41:19;;;;;;;2.88;1.63;;;;;;;;;;1036590;28;20033;-74
2022/08/17 00:41:50;;;;;;;5.55;1.88;;;;;;;;;;1036386;28;20029;-74
2022/08/17 00:42:20;;;;;;;6.82;1.42;;;;;;;;;;1036319;28;20529;-74
2022/08/17 00:42:52;;;;;;;5.75;1.33;;;;;;;;;;1036583;28;20398;-74
2022/08/17 00:43:31;;;;;;;13.48;1.63;;;;;;;;;;1036337;28;20371;-74
2022/08/17 00:44:03;;;;;;;3.13;1.23;;;;;;;;;;1036720;28;20036;-75
2022/08/17 00:44:33;;;;;;;5.28;1.45;;;;;;;;;;1036785;28;20402;-75
2022/08/17 00:45:05;;;;;;;5.50;2.00;;;;;;;;;;1036656;28;20022;-74
2022/08/17 00:45:35;;;;;;;7.45;1.92;;;;;;;;;;1036737;28;20452;-74
2022/08/17 00:46:11;;;;;;;5.85;1.60;;;;;;;;;;1035997;28;20092;-74
2022/08/17 00:46:42;;;;;;;5.03;1.42;;;;;;;;;;1035746;28;20026;-75
2022/08/17 00:47:13;;;;;;;3.58;1.30;;;;;;;;;;1031150;28;20457;-75
2022/08/17 00:47:43;;;;;;;11.57;1.95;;;;;;;;;;1032397;28;20023;-74
2022/08/17 00:48:14;;;;;;;9.27;2.83;;;;;;;;;;1032446;28;20077;-75
2022/08/17 00:48:45;;;;;;;4.85;1.73;;;;;;;;;;1036543;28;20168;-75
2022/08/17 00:49:18;;;;;;;6.43;1.80;;;;;;;;;;1036200;28;20026;-75
2022/08/17 00:49:49;;;;;;;3.92;1.33;;;;;;;;;;1032489;28;20515;-75
2022/08/17 00:50:19;;;;;;;8.02;3.03;;;;;;;;;;1032137;28;20029;-75
2022/08/17 00:51:13;;;;;;;5.82;1.70;;;;;;;;;;1032932;28;20030;-74
2022/08/17 00:51:54;;;;;;;2.30;1.23;;;;;;;;;;1025407;28;20395;-74
2022/08/17 00:52:27;;;;;;;3.25;1.83;;;;;;;;;;1036929;28;20512;-74
2022/08/17 00:52:58;;;;;;;5.82;1.38;;;;;;;;;;1040402;28;20035;-74
2022/08/17 00:53:30;;;;;;;2.90;1.63;;;;;;;;;;1040660;28;20080;-74
2022/08/17 00:54:07;;;;;;;7.80;1.75;;;;;;;;;;1040423;28;20393;-75
2022/08/17 00:54:40;;;;;;;3.95;1.70;;;;;;;;;;1040924;28;20455;-75
2022/08/17 00:55:11;;;;;;;9.07;1.92;;;;;;;;;;1040777;28;20032;-74
2022/08/17 00:55:41;;;;;;;4.90;2.03;;;;;;;;;;1040851;28;20389;-74
2022/08/17 00:56:16;;;;;;;11.70;1.90;;;;;;;;;;1040500;28;20029;-75
2022/08/17 00:57:03;;;;;;;19.52;2.40;;;;;;;;;;1040837;28;20036;-74
2022/08/17 00:57:37;;;;;;;13.60;2.08;;;;;;;;;;1039901;28;20029;-75
2022/08/17 00:58:09;;;;;;;9.75;1.45;;;;;;;;;;1040740;28;20025;-75
2022/08/17 00:58:40;;;;;;;6.25;3.97;;;;;;;;;;1040854;28;20025;-74
2022/08/17 00:59:12;;;;;;;7.57;2.38;;;;;;;;;;1040744;28;20029;-74
2022/08/17 00:59:45;;;;;;;5.70;2.65;;;;;;;;;;1040782;28;20489;-75
2022/08/17 01:00:28;;;;;;;4.78;1.60;;;;;;;;;;1040275;28;20056;-75
2022/08/17 01:01:00;;;;;;;4.82;1.85;;;;;;;;;;1040292;28;20029;-75
2022/08/17 01:01:31;;;;;;;5.32;1.65;;;;;;;;;;1040406;28;20036;-75
2022/08/17 01:02:03;;;;;;;16.13;1.95;;;;;;;;;;1040402;28;20417;-75
2022/08/17 01:02:38;;;;;;;10.63;2.30;;;;;;;;;;1036934;28;20472;-75
2022/08/17 01:03:20;;;;;;;4.60;1.95;;;;;;;;;;1036183;28;20028;-74
2022/08/17 01:03:51;;;;;;;7.47;1.80;;;;;;;;;;1035843;28;20603;-75
2022/08/17 01:04:22;;;;;;;9.88;1.90;;;;;;;;;;1034508;28;20470;-75
2022/08/17 01:04:53;;;;;;;13.00;2.13;;;;;;;;;;1037911;28;20037;-75
2022/08/17 01:05:25;;;;;;;18.52;2.10;;;;;;;;;;1040097;28;20516;-75
2022/08/17 01:05:57;;;;;;;5.05;1.52;;;;;;;;;;1040373;28;20029;-75
2022/08/17 01:06:28;;;;;;;11.90;1.95;;;;;;;;;;1036262;28;20026;-75
2022/08/17 01:06:59;;;;;;;7.35;1.70;;;;;;;;;;1036325;28;20026;-74
2022/08/17 01:07:30;;;;;;;11.93;1.23;;;;;;;;;;1036694;28;20084;-74
2022/08/17 01:08:01;;;;;;;3.35;1.40;;;;;;;;;;1040416;28;20026;-74
2022/08/17 01:08:32;;;;;;;3.42;1.58;;;;;;;;;;1040345;28;20187;-75
2022/08/17 01:09:02;;;;;;;5.35;1.55;;;;;;;;;;1040405;28;20038;-75
2022/08/17 01:09:33;;;;;;;15.95;2.15;;;;;;;;;;1040280;28;20033;-74
2022/08/17 01:10:05;;;;;;;3.17;1.77;;;;;;;;;;1040433;28;20025;-74
2022/08/17 01:10:41;;;;;;;4.63;1.90;;;;;;;;;;1040753;28;20021;-75
2022/08/17 01:11:11;;;;;;;7.97;1.65;;;;;;;;;;1040606;28;20025;-74
2022/08/17 01:11:43;;;;;;;6.70;1.75;;;;;;;;;;1040237;28;20033;-74
2022/08/17 01:12:14;;;;;;;3.58;1.30;;;;;;;;;;1035722;28;20026;-74
2022/08/17 01:12:45;;;;;;;6.97;2.38;;;;;;;;;;1036199;28;20025;-75
2022/08/17 01:13:16;;;;;;;12.38;1.42;;;;;;;;;;1036557;28;20030;-75
2022/08/17 01:13:47;;;;;;;6.78;1.65;;;;;;;;;;1040464;28;20508;-75
2022/08/17 01:14:20;;;;;;;6.78;1.90;;;;;;;;;;1040586;28;20029;-75
2022/08/17 01:14:50;;;;;;;4.90;1.60;;;;;;;;;;1040847;28;20040;-75
2022/08/17 01:15:21;;;;;;;5.00;1.55;;;;;;;;;;1040612;28;20036;-75
2022/08/17 01:15:54;;;;;;;3.88;1.98;;;;;;;;;;1040783;28;20051;-75
2022/08/17 01:16:26;;;;;;;17.52;2.47;;;;;;;;;;1040681;28;20057;-75
2022/08/17 01:16:57;;;;;;;3.20;1.38;;;;;;;;;;1040485;28;20033;-75
2022/08/17 01:17:27;;;;;;;6.57;1.92;;;;;;;;;;1040484;28;20033;-75
2022/08/17 01:17:58;;;;;;;12.70;2.10;;;;;;;;;;1040651;28;20477;-75
2022/08/17 01:18:30;;;;;;;6.75;1.70;;;;;;;;;;1040324;28;20021;-75
2022/08/17 01:19:04;;;;;;;7.57;1.65;;;;;;;;;;1036275;28;20025;-75
2022/08/17 01:19:36;;;;;;;3.72;1.50;;;;;;;;;;1036239;28;20183;-75
2022/08/17 01:20:07;;;;;;;6.13;1.90;;;;;;;;;;1036287;28;20096;-74
2022/08/17 01:20:41;;;;;;;3.72;1.42;;;;;;;;;;1036665;28;20033;-75
2022/08/17 01:21:15;;;;;;;4.00;1.90;;;;;;;;;;1039095;28;20099;-75
2022/08/17 01:21:49;;;;;;;6.38;1.92;;;;;;;;;;1039878;28;20021;-75
2022/08/17 01:22:21;;;;;;;4.75;1.45;;;;;;;;;;1040235;28;20053;-75
2022/08/17 01:22:52;;;;;;;11.52;2.63;;;;;;;;;;1040502;28;20033;-75
2022/08/17 01:23:24;;;;;;;5.30;1.92;;;;;;;;;;1040235;28;20630;-75
2022/08/17 01:23:55;;;;;;;5.03;2.10;;;;;;;;;;1041353;28;20033;-74
2022/08/17 01:24:26;;;;;;;11.10;2.50;;;;;;;;;;1040679;28;20030;-74
2022/08/17 01:24:58;;;;;;;6.30;2.40;;;;;;;;;;1040593;28;20036;-75
2022/08/17 01:25:29;;;;;;;5.30;2.00;;;;;;;;;;1040468;28;20112;-75
2022/08/17 01:26:00;;;;;;;6.90;2.28;;;;;;;;;;1036699;28;20108;-75
2022/08/17 01:26:34;;;;;;;6.57;2.08;;;;;;;;;;1039968;28;20124;-75
2022/08/17 01:27:05;;;;;;;6.72;1.92;;;;;;;;;;1040057;28;20120;-75
2022/08/17 01:27:36;;;;;;;5.93;2.00;;;;;;;;;;1035909;28;20116;-75
2022/08/17 01:28:07;;;;;;;4.75;2.00;;;;;;;;;;1034846;28;20048;-75
2022/08/17 01:28:38;;;;;;;5.72;2.45;;;;;;;;;;1035477;28;20107;-75
2022/08/17 01:29:10;;;;;;;3.88;1.73;;;;;;;;;;1037752;28;20033;-74
2022/08/17 01:29:42;;;;;;;10.85;2.05;;;;;;;;;;1037214;28;20091;-75
2022/08/17 01:30:13;;;;;;;7.65;2.50;;;;;;;;;;1039500;28;20033;-75
2022/08/17 01:30:44;;;;;;;6.82;2.30;;;;;;;;;;1039242;28;20033;-75
2022/08/17 01:31:15;;;;;;;3.25;1.83;;;;;;;;;;1038547;28;20453;-75
2022/08/17 01:31:47;;;;;;;7.78;1.80;;;;;;;;;;1039132;28;20026;-75
2022/08/17 01:32:18;;;;;;;7.20;1.90;;;;;;;;;;1040380;28;20029;-75
2022/08/17 01:32:50;;;;;;;5.47;1.77;;;;;;;;;;1040054;28;20122;-75
2022/08/17 01:33:21;;;;;;;11.40;2.08;;;;;;;;;;1038213;28;20021;-75
2022/08/17 01:33:51;;;;;;;5.55;2.13;;;;;;;;;;1040391;28;20481;-75
2022/08/17 01:34:23;;;;;;;6.65;1.80;;;;;;;;;;1036034;28;20033;-75
2022/08/17 01:34:54;;;;;;;5.32;2.08;;;;;;;;;;1036864;28;20156;-75
2022/08/17 01:35:25;;;;;;;4.63;1.83;;;;;;;;;;1040187;28;20489;-74
2022/08/17 01:35:59;;;;;;;5.93;1.67;;;;;;;;;;1040396;28;20136;-75
2022/08/17 01:36:30;;;;;;;3.92;2.28;;;;;;;;;;1040167;28;20029;-75
2022/08/17 01:37:00;;;;;;;9.27;2.63;;;;;;;;;;1040299;28;20144;-75
2022/08/17 01:37:34;;;;;;;13.63;2.75;;;;;;;;;;1040231;28;20025;-75
2022/08/17 01:38:05;;;;;;;6.85;2.80;;;;;;;;;;1040162;28;20034;-75
2022/08/17 01:38:36;;;;;;;5.63;1.98;;;;;;;;;;1039836;28;20025;-75
2022/08/17 01:39:15;;;;;;;5.22;2.20;;;;;;;;;;1040150;28;20045;-75
2022/08/17 01:39:51;;;;;;;14.57;2.40;;;;;;;;;;1040458;28;20580;-74
2022/08/17 01:40:25;;;;;;;7.97;1.67;;;;;;;;;;1040362;28;20029;-74
2022/08/17 01:40:57;;;;;;;10.18;3.22;;;;;;;;;;1040504;28;20028;-75
2022/08/17 01:41:28;;;;;;;10.50;2.72;;;;;;;;;;1040763;28;20033;-75
2022/08/17 01:42:10;;;;;;;10.77;2.42;;;;;;;;;;1040669;28;20480;-75
2022/08/17 01:42:44;;;;;;;11.85;1.63;;;;;;;;;;1040661;28;20037;-75
2022/08/17 01:43:20;;;;;;;9.52;1.50;;;;;;;;;;1040501;28;20417;-74
2022/08/17 01:43:56;;;;;;;9.38;3.42;;;;;;;;;;1040238;28;20025;-75
2022/08/17 01:44:27;;;;;;;13.32;1.58;;;;;;;;;;1040554;28;20030;-75
2022/08/17 01:45:00;;;;;;;7.70;1.73;;;;;;;;;;1040217;28;20048;-75
2022/08/17 01:45:32;;;;;;;9.13;1.63;;;;;;;;;;1040188;28;20468;-75
2022/08/17 01:46:03;;;;;;;14.20;1.60;;;;;;;;;;1037971;28;20025;-75
2022/08/17 01:46:35;;;;;;;2.78;0.85;;;;;;;;;;1040363;28;20025;-75
2022/08/17 01:47:06;;;;;;;3.92;2.00;;;;;;;;;;1035950;28;20374;-75
2022/08/17 01:47:36;;;;;;;2.80;1.38;;;;;;;;;;1036490;28;20054;-75
2022/08/17 01:48:07;;;;;;;4.50;1.38;;;;;;;;;;1040078;28;20116;-75
2022/08/17 01:48:38;;;;;;;7.20;1.60;;;;;;;;;;1039677;28;20045;-75
2022/08/17 01:49:09;;;;;;;3.53;1.70;;;;;;;;;;1040531;28;20500;-75
2022/08/17 01:49:40;;;;;;;4.07;1.42;;;;;;;;;;1039552;28;20037;-75
2022/08/17 01:50:16;;;;;;;4.93;1.33;;;;;;;;;;1037324;28;20022;-75
2022/08/17 01:50:48;;;;;;;13.80;1.73;;;;;;;;;;1035937;28;20034;-75
2022/08/17 01:51:19;;;;;;;5.07;1.80;;;;;;;;;;1040011;28;20032;-75
2022/08/17 01:51:50;;;;;;;8.85;1.50;;;;;;;;;;1037885;28;20025;-75
2022/08/17 01:52:22;;;;;;;7.70;1.58;;;;;;;;;;1037404;28;20033;-75
2022/08/17 01:52:57;;;;;;;2.63;1.10;;;;;;;;;;1035994;28;20180;-75
2022/08/17 01:53:35;;;;;;;13.40;2.22;;;;;;;;;;1036948;28;20481;-75
2022/08/17 01:54:09;;;;;;;14.65;1.67;;;;;;;;;;1039496;28;20027;-75
2022/08/17 01:54:41;;;;;;;3.22;1.42;;;;;;;;;;1040191;28;20485;-75
2022/08/17 01:55:12;;;;;;;5.60;1.98;;;;;;;;;;1040262;28;20021;-74
2022/08/17 01:55:48;;;;;;;4.80;1.63;;;;;;;;;;1040018;28;20106;-74
2022/08/17 01:56:20;;;;;;;4.43;1.30;;;;;;;;;;1040065;28;20051;-74
2022/08/17 01:56:51;;;;;;;7.72;1.45;;;;;;;;;;1040047;28;20068;-74
2022/08/17 01:57:22;;;;;;;5.90;1.45;;;;;;;;;;1039927;28;20420;-75
2022/08/17 01:57:52;;;;;;;4.82;1.90;;;;;;;;;;1035871;28;20076;-74
2022/08/17 01:58:23;;;;;;;7.97;1.60;;;;;;;;;;1034741;28;20393;-75
2022/08/17 01:58:53;;;;;;;2.88;1.48;;;;;;;;;;1039018;28;20457;-74
2022/08/17 01:59:24;;;;;;;3.83;1.25;;;;;;;;;;1039189;28;20029;-74
2022/08/17 01:59:55;;;;;;;11.50;1.33;;;;;;;;;;1040443;28;20060;-75
2022/08/17 02:00:25;;;;;;;4.32;1.50;;;;;;;;;;1039283;28;20026;-75
2022/08/17 02:00:56;;;;;;;7.75;1.35;;;;;;;;;;1040452;28;20426;-74
2022/08/17 02:01:27;;;;;;;1.98;1.40;;;;;;;;;;1040238;28;20028;-74
2022/08/17 02:01:59;;;;;;;7.60;2.00;;;;;;;;;;1039416;28;20130;-74
2022/08/17 02:02:29;;;;;;;9.85;1.42;;;;;;;;;;1040577;28;20098;-74
2022/08/17 02:03:00;;;;;;;6.00;1.73;;;;;;;;;;1040421;28;20092;-74
2022/08/17 02:03:33;;;;;;;5.22;2.42;;;;;;;;;;1039974;28;20548;-75
2022/08/17 02:04:04;;;;;;;5.85;1.30;;;;;;;;;;1038600;28;20040;-75
2022/08/17 02:04:35;;;;;;;7.85;1.63;;;;;;;;;;1039258;28;20033;-75
2022/08/17 02:05:06;;;;;;;7.80;1.40;;;;;;;;;;1040107;28;20452;-75
2022/08/17 02:05:37;;;;;;;12.02;1.58;;;;;;;;;;1039828;28;20147;-74
2022/08/17 02:06:08;;;;;;;9.55;1.48;;;;;;;;;;1040170;28;20025;-74
2022/08/17 02:06:40;;;;;;;7.40;0.95;;;;;;;;;;1040283;28;20413;-75
2022/08/17 02:07:10;;;;;;;5.60;1.55;;;;;;;;;;1040136;28;20514;-75
2022/08/17 02:07:41;;;;;;;3.50;1.38;;;;;;;;;;1040070;28;20025;-75
2022/08/17 02:08:12;;;;;;;17.48;2.65;;;;;;;;;;1039143;28;20035;-74
2022/08/17 02:08:42;;;;;;;4.32;1.23;;;;;;;;;;1040082;28;20033;-74
2022/08/17 02:09:13;;;;;;;3.78;1.48;;;;;;;;;;1039284;28;20526;-74
2022/08/17 02:09:44;;;;;;;4.43;1.65;;;;;;;;;;1040361;28;20033;-74
2022/08/17 02:10:14;;;;;;;3.38;1.55;;;;;;;;;;1039946;28;20033;-75
2022/08/17 02:10:46;;;;;;;7.40;2.10;;;;;;;;;;1040193;28;20489;-75
2022/08/17 02:11:17;;;;;;;4.53;1.08;;;;;;;;;;1039415;28;20041;-75
2022/08/17 02:11:48;;;;;;;4.05;1.48;;;;;;;;;;1037647;28;20544;-75
2022/08/17 02:12:19;;;;;;;3.58;1.73;;;;;;;;;;1036186;28;20479;-75
2022/08/17 02:12:49;;;;;;;4.45;1.40;;;;;;;;;;1037987;28;20025;-75
2022/08/17 02:13:20;;;;;;;13.00;1.88;;;;;;;;;;1037827;28;20025;-75
2022/08/17 02:13:51;;;;;;;6.00;2.97;;;;;;;;;;1038199;28;20147;-75
2022/08/17 02:14:22;;;;;;;4.75;1.33;;;;;;;;;;1037610;28;20598;-75
2022/08/17 02:14:52;;;;;;;5.13;1.52;;;;;;;;;;1039450;28;20029;-75
2022/08/17 02:15:23;;;;;;;6.95;1.88;;;;;;;;;;1037944;28;20476;-75
2022/08/17 02:15:55;;;;;;;4.47;1.50;;;;;;;;;;1037502;28;20034;-75
2022/08/17 02:16:26;;;;;;;17.10;2.03;;;;;;;;;;1037393;28;20034;-75
2022/08/17 02:16:56;;;;;;;6.13;1.42;;;;;;;;;;1037106;28;20061;-75
2022/08/17 02:17:27;;;;;;;6.93;1.85;;;;;;;;;;1037657;28;20041;-75
2022/08/17 02:17:57;;;;;;;8.88;1.55;;;;;;;;;;1037791;28;20030;-75
2022/08/17 02:18:29;;;;;;;14.18;2.13;;;;;;;;;;1037744;28;20112;-75
2022/08/17 02:19:00;;;;;;;10.60;1.95;;;;;;;;;;1036693;28;20525;-75
2022/08/17 02:19:30;;;;;;;12.80;2.17;;;;;;;;;;1037883;28;20032;-75
2022/08/17 02:20:02;;;;;;;5.78;1.40;;;;;;;;;;1037389;28;20029;-75
2022/08/17 02:20:32;;;;;;;4.05;1.80;;;;;;;;;;1038692;28;20374;-75
2022/08/17 02:21:03;;;;;;;10.35;2.22;;;;;;;;;;1039293;28;20056;-75
2022/08/17 02:21:35;;;;;;;25.90;3.30;;;;;;;;;;1038224;28;20469;-75
2022/08/17 02:22:06;;;;;;;10.48;2.80;;;;;;;;;;1037854;28;20041;-75
2022/08/17 02:22:38;;;;;;;15.27;2.83;;;;;;;;;;1037883;28;20482;-75
2022/08/17 02:23:10;;;;;;;7.53;2.47;;;;;;;;;;1037875;28;20030;-75
2022/08/17 02:23:43;;;;;;;13.20;1.77;;;;;;;;;;1038008;28;20037;-75
2022/08/17 02:24:19;;;;;;;12.18;3.53;;;;;;;;;;1037767;28;20025;-75
2022/08/17 02:24:50;;;;;;;6.25;1.88;;;;;;;;;;1037501;28;20121;-75
2022/08/17 02:25:21;;;;;;;16.38;2.83;;;;;;;;;;1039180;28;20546;-75
2022/08/17 02:25:52;;;;;;;8.45;1.77;;;;;;;;;;1037917;28;20087;-75
2022/08/17 02:26:22;;;;;;;7.63;3.42;;;;;;;;;;1039425;28;20489;-75
2022/08/17 02:26:53;;;;;;;5.72;2.03;;;;;;;;;;1038913;28;20579;-75
2022/08/17 02:27:23;;;;;;;9.50;2.20;;;;;;;;;;1038612;28;20115;-75
2022/08/17 02:27:54;;;;;;;6.10;1.60;;;;;;;;;;1036973;28;20479;-75
2022/08/17 02:28:24;;;;;;;12.32;2.35;;;;;;;;;;1039741;28;20064;-75
2022/08/17 02:28:55;;;;;;;15.57;3.20;;;;;;;;;;1036454;28;20033;-75
2022/08/17 02:29:26;;;;;;;5.63;1.75;;;;;;;;;;1033455;28;20176;-75
2022/08/17 02:29:56;;;;;;;8.75;1.80;;;;;;;;;;1035221;28;20034;-75
2022/08/17 02:30:27;;;;;;;6.78;2.28;;;;;;;;;;1037463;28;20033;-75
2022/08/17 02:31:03;;;;;;;5.28;1.88;;;;;;;;;;1038306;28;20452;-75
2022/08/17 02:31:34;;;;;;;13.48;2.65;;;;;;;;;;1039150;28;20036;-75
2022/08/17 02:32:05;;;;;;;8.00;2.17;;;;;;;;;;1039405;28;20052;-75
2022/08/17 02:32:36;;;;;;;13.45;2.40;;;;;;;;;;1039011;28;20432;-75
2022/08/17 02:33:07;;;;;;;8.73;1.77;;;;;;;;;;1037723;28;20088;-75
2022/08/17 02:33:38;;;;;;;11.57;1.70;;;;;;;;;;1037071;28;20374;-75
2022/08/17 02:34:09;;;;;;;3.75;1.92;;;;;;;;;;1036616;28;20076;-75
2022/08/17 02:34:40;;;;;;;8.65;2.05;;;;;;;;;;1037860;28;20041;-75
2022/08/17 02:35:12;;;;;;;6.63;1.50;;;;;;;;;;1033560;28;20458;-75
2022/08/17 02:35:42;;;;;;;5.68;1.48;;;;;;;;;;1038179;28;20033;-75
2022/08/17 02:36:13;;;;;;;6.75;1.67;;;;;;;;;;1036432;28;20026;-75
2022/08/17 02:36:43;;;;;;;4.20;1.80;;;;;;;;;;1038361;28;20021;-75
2022/08/17 02:37:17;;;;;;;12.07;2.20;;;;;;;;;;1038580;28;21079;-75
2022/08/17 02:37:48;;;;;;;6.40;2.53;;;;;;;;;;1039446;28;20021;-75
2022/08/17 02:38:19;;;;;;;13.23;2.90;;;;;;;;;;1037235;28;20030;-75
2022/08/17 02:38:50;;;;;;;7.35;2.33;;;;;;;;;;1037961;28;20017;-75
2022/08/17 02:39:20;;;;;;;12.60;2.25;;;;;;;;;;1037694;28;20029;-75
2022/08/17 02:39:51;;;;;;;5.30;1.70;;;;;;;;;;1035495;28;20018;-75
2022/08/17 02:40:22;;;;;;;5.72;1.60;;;;;;;;;;1031642;28;20061;-75
2022/08/17 02:40:53;;;;;;;9.93;2.25;;;;;;;;;;1035219;28;20501;-75
2022/08/17 02:41:23;;;;;;;10.38;1.50;;;;;;;;;;1033748;28;20026;-75
2022/08/17 02:42:01;;;;;;;12.48;1.60;;;;;;;;;;1033669;28;20041;-75
2022/08/17 02:42:34;;;;;;;12.60;1.63;;;;;;;;;;1037695;28;20477;-75
2022/08/17 02:43:05;;;;;;;14.57;1.95;;;;;;;;;;1038163;28;20465;-75
2022/08/17 02:43:36;;;;;;;7.40;3.45;;;;;;;;;;1035443;28;20622;-75
2022/08/17 02:44:07;;;;;;;10.35;2.30;;;;;;;;;;1036901;28;20033;-75
2022/08/17 02:44:37;;;;;;;8.20;2.80;;;;;;;;;;1038864;28;20056;-75
2022/08/17 02:45:10;;;;;;;8.02;2.40;;;;;;;;;;1039329;28;20028;-75
2022/08/17 02:45:40;;;;;;;8.68;1.42;;;;;;;;;;1037678;28;20080;-75
2022/08/17 02:46:11;;;;;;;10.68;1.88;;;;;;;;;;1037441;28;20485;-75
2022/08/17 02:46:42;;;;;;;8.60;1.77;;;;;;;;;;1037567;28;20459;-75
2022/08/17 02:47:12;;;;;;;11.55;2.85;;;;;;;;;;1037678;28;20542;-75
2022/08/17 02:47:43;;;;;;;6.05;2.45;;;;;;;;;;1037601;28;20022;-75
2022/08/17 02:48:14;;;;;;;3.65;1.80;;;;;;;;;;1039301;28;20025;-75
2022/08/17 02:48:45;;;;;;;8.05;1.80;;;;;;;;;;1038848;28;20013;-75
2022/08/17 02:49:15;;;;;;;10.50;2.10;;;;;;;;;;1039054;28;20030;-75
2022/08/17 02:49:46;;;;;;;10.10;2.45;;;;;;;;;;1036187;28;20029;-75
2022/08/17 02:50:18;;;;;;;10.85;2.65;;;;;;;;;;1036426;28;20025;-75
2022/08/17 02:50:49;;;;;;;11.63;1.77;;;;;;;;;;1038796;28;20536;-75
2022/08/17 02:51:19;;;;;;;20.10;2.60;;;;;;;;;;1036927;28;20022;-75
2022/08/17 02:51:50;;;;;;;15.10;4.07;;;;;;;;;;1038105;28;20029;-75
2022/08/17 02:52:20;;;;;;;5.43;1.50;;;;;;;;;;1037427;28;20017;-75
2022/08/17 02:52:51;;;;;;;7.32;1.77;;;;;;;;;;1037877;28;20118;-75
2022/08/17 02:53:22;;;;;;;7.05;1.42;;;;;;;;;;1037645;28;20021;-75
2022/08/17 02:53:53;;;;;;;8.80;2.60;;;;;;;;;;1037856;28;20024;-75
2022/08/17 02:54:24;;;;;;;4.65;1.67;;;;;;;;;;1036046;28;20084;-75
2022/08/17 02:54:54;;;;;;;6.45;1.67;;;;;;;;;;1038299;28;20023;-75
2022/08/17 02:55:30;;;;;;;7.03;2.40;;;;;;;;;;1038089;28;20086;-75
2022/08/17 02:56:00;;;;;;;8.90;1.85;;;;;;;;;;1037956;28;20053;-75
2022/08/17 02:56:31;;;;;;;12.10;1.80;;;;;;;;;;1038260;28;20470;-75
2022/08/17 02:57:02;;;;;;;11.70;2.17;;;;;;;;;;1038048;28;20068;-75
2022/08/17 02:57:32;;;;;;;7.65;1.95;;;;;;;;;;1037505;28;20022;-75
2022/08/17 02:58:03;;;;;;;11.20;2.20;;;;;;;;;;1037303;28;20029;-75
2022/08/17 02:58:34;;;;;;;13.98;2.00;;;;;;;;;;1035386;28;20018;-75
2022/08/17 02:59:05;;;;;;;14.15;3.58;;;;;;;;;;1034297;28;20114;-75
2022/08/17 02:59:35;;;;;;;11.27;3.08;;;;;;;;;;1037696;28;20037;-75
2022/08/17 03:00:15;;;;;;;10.27;3.10;;;;;;;;;;1034776;28;20029;-75
2022/08/17 03:00:47;;;;;;;7.37;1.53;;;;;;;;;;1037481;28;20075;-75
2022/08/17 03:01:17;;;;;;;15.63;2.90;;;;;;;;;;1037339;28;20252;-75
2022/08/17 03:01:48;;;;;;;13.18;2.45;;;;;;;;;;1039076;28;20048;-75
2022/08/17 03:02:18;;;;;;;4.88;1.92;;;;;;;;;;1041884;28;20025;-75
2022/08/17 03:02:49;;;;;;;8.32;2.55;;;;;;;;;;1039625;28;20026;-75
2022/08/17 03:03:19;;;;;;;10.85;1.85;;;;;;;;;;1037886;28;20455;-75
2022/08/17 03:03:50;;;;;;;12.57;3.55;;;;;;;;;;1037856;28;20025;-75
2022/08/17 03:04:21;;;;;;;16.65;2.17;;;;;;;;;;1038542;28;20436;-75
2022/08/17 03:04:51;;;;;;;12.18;1.67;;;;;;;;;;1036718;28;20021;-75
2022/08/17 03:05:23;;;;;;;5.55;2.13;;;;;;;;;;1039350;28;20021;-75
2022/08/17 03:05:54;;;;;;;6.50;1.27;;;;;;;;;;1037792;28;20125;-75
2022/08/17 03:06:24;;;;;;;14.15;2.10;;;;;;;;;;1036019;28;20029;-75
2022/08/17 03:06:55;;;;;;;10.68;1.92;;;;;;;;;;1037509;28;20112;-75
2022/08/17 03:07:25;;;;;;;5.03;2.00;;;;;;;;;;1037716;28;20073;-75
2022/08/17 03:07:56;;;;;;;7.55;2.22;;;;;;;;;;1036944;28;20025;-75
2022/08/17 03:08:27;;;;;;;15.95;3.08;;;;;;;;;;1037933;28;20034;-75
2022/08/17 03:08:57;;;;;;;5.40;2.33;;;;;;;;;;1036736;28;20556;-75
2022/08/17 03:09:28;;;;;;;5.22;1.80;;;;;;;;;;1037380;28;20030;-75
2022/08/17 03:09:59;;;;;;;14.80;2.75;;;;;;;;;;1038390;28;20127;-75